Clinton, Canada
Current Conditions -  °F | °C
As of 2:00 AM on Monday 22 Dec 2014 (Local Time) from CYXU Reporting Station
Overcast Overcast  
Wind Chill: 21°   Ceiling: 1900
Heat Index: 30°   Visibility: 12mi
Dew Point: 25°   Wind: 10mph
Humidity: 80%   Direction: 130°SE
Pressure: 30.18"   Gusts: NA
Location:  43.6°N, 81.53°W
Report Text: CYXU 220700Z 13009KT 12SM OVC019 M01/M04 A3018 RMK SC8 SLP232
Loading
Personal Weather Stations






























Interactive Weather Map New forecast layout! Learn more

10-Day Weather Forecast

Advertisements
Track Severe Weather on mobile